Flight VSA438F

  • Submitted By: Kevin Harkins
  • Departure Airport: Indianapolis Intl (KIND)
  • Arrival Airport: Nashville,International (KBNA)
  • Aircraft: 1900C/D (N19002)
  • Flight Time: 01.03
  • Date Submitted: 10/17/2016
  • Route: DIRECT.
  • Status: Accepted
Flight Details
Gross Revenue:
(7984 load / $ 40.00 per unit
$ 319,360.00
Fuel Cost:
(664 fuel used @ 5.1 / unit)
$ 3,386.40

Flight Details

  • Upper FWD Main: -
  • Upper AFT Main: -
  • Lower FWD: -
  • Lower AFT: -
  • WX Engine used: FS WX
  • Flight Type IFR/VFR: IFR
  • Number of Flight Crew: 2
  • Upper Main Center Single : 4600 lbs cargo B-1900
  • A380 UPR MAIN SGL: -
  • A380 MID MAIN SGL: -
  • A380 LWR DECK SGL: -

Additional Log Information:

View Log

[15:47] Aircraft Title - B1900C Frontier
[15:47] Aircraft Model - 190
[15:47] Flight Number VSA438F
[15:47] Departure KIND
[15:47] Destination KBNA
[15:47] Boarding
[15:48] Pushing Back
[15:49] Taxiing to Runway
[15:51] Taking Off
[15:51] Taking Off
[15:51] 136kts
[15:51] pitch angle 8 degrees
[15:51] 1175 (lbs) of fuel onboard
[15:52] Climbing
[16:13] TOC Reached
[16:13] Cruise 17000
[16:36] TOD Reached
[16:36] Descending
[16:42] On Approach
[16:46] Landing Rate -244fpm
[16:46] 541 (lbs) of fuel onboard
[16:46] pitch angle 5 degrees
[16:46] Taxiing to Gate
[16:50] Arrived
[16:50] Max Sim Rate: 1x
[16:50] kACARS_Free Version 1.0.1.1

Comments

Commenter Comment
Kevin Harkins KIND / KBNA D-1900 101716 flt # VSA438F WX KIND 171954Z 20019G23KT 10SM FEW037 FEW250 27/18 A2975 RMK AO2 PK WND 21027/1922 SLP067 T02720178 WX KBNA 171953Z 20013G18KT 10SM BKN060 BKN250 29/16 A2992 RMK AO2 SLP126 T02940161 FLT PLAN KIND OOM BWG BNA KBNA CREW 2

Route Map

Pilots Online

Guests Online